sensor_id;sensor_type;location;lat;lon;timestamp;P1;durP1;ratioP1;P2;durP2;ratioP2
24153;SDS011;12312;53.362;-1.518;2022-09-21T00:00:51;7.78;;;4.75;;
24153;SDS011;12312;53.362;-1.518;2022-09-21T00:03:17;9.02;;;4.65;;
24153;SDS011;12312;53.362;-1.518;2022-09-21T00:05:44;7.38;;;4.15;;
24153;SDS011;12312;53.362;-1.518;2022-09-21T00:08:10;6.35;;;4.03;;
24153;SDS011;12312;53.362;-1.518;2022-09-21T00:10:38;6.47;;;4.13;;
24153;SDS011;12312;53.362;-1.518;2022-09-21T00:13:04;10.25;;;4.32;;
24153;SDS011;12312;53.362;-1.518;2022-09-21T00:15:33;6.18;;;3.75;;
24153;SDS011;12312;53.362;-1.518;2022-09-21T00:17:59;9.32;;;4.50;;
24153;SDS011;12312;53.362;-1.518;2022-09-21T00:20:29;6.72;;;3.90;;
24153;SDS011;12312;53.362;-1.518;2022-09-21T00:22:55;6.68;;;3.78;;
24153;SDS011;12312;53.362;-1.518;2022-09-21T00:25:21;7.22;;;4.40;;
24153;SDS011;12312;53.362;-1.518;2022-09-21T00:27:46;7.68;;;4.65;;
24153;SDS011;12312;53.362;-1.518;2022-09-21T00:30:15;5.82;;;4.40;;
24153;SDS011;12312;53.362;-1.518;2022-09-21T00:32:41;7.95;;;4.13;;
24153;SDS011;12312;53.362;-1.518;2022-09-21T00:35:06;6.90;;;4.22;;
24153;SDS011;12312;53.362;-1.518;2022-09-21T00:37:34;5.55;;;3.65;;
24153;SDS011;12312;53.362;-1.518;2022-09-21T00:40:00;6.47;;;3.67;;
24153;SDS011;12312;53.362;-1.518;2022-09-21T00:42:36;7.05;;;4.10;;
24153;SDS011;12312;53.362;-1.518;2022-09-21T00:45:02;8.13;;;4.18;;
24153;SDS011;12312;53.362;-1.518;2022-09-21T00:47:38;6.90;;;4.03;;
24153;SDS011;12312;53.362;-1.518;2022-09-21T00:50:07;6.18;;;4.03;;
24153;SDS011;12312;53.362;-1.518;2022-09-21T00:52:37;6.65;;;3.78;;
24153;SDS011;12312;53.362;-1.518;2022-09-21T00:58:13;5.75;;;3.60;;
24153;SDS011;12312;53.362;-1.518;2022-09-21T01:00:42;5.65;;;3.72;;
24153;SDS011;12312;53.362;-1.518;2022-09-21T01:03:09;6.43;;;3.65;;
24153;SDS011;12312;53.362;-1.518;2022-09-21T01:05:37;6.28;;;3.58;;
24153;SDS011;12312;53.362;-1.518;2022-09-21T01:08:03;6.60;;;3.65;;
24153;SDS011;12312;53.362;-1.518;2022-09-21T01:10:45;5.00;;;3.47;;
24153;SDS011;12312;53.362;-1.518;2022-09-21T01:13:47;5.85;;;3.40;;
24153;SDS011;12312;53.362;-1.518;2022-09-21T01:16:25;7.07;;;3.88;;
24153;SDS011;12312;53.362;-1.518;2022-09-21T01:21:47;6.75;;;3.88;;
24153;SDS011;12312;53.362;-1.518;2022-09-21T01:24:40;8.07;;;4.07;;
24153;SDS011;12312;53.362;-1.518;2022-09-21T01:27:50;7.68;;;3.50;;
24153;SDS011;12312;53.362;-1.518;2022-09-21T01:30:18;8.03;;;3.63;;
24153;SDS011;12312;53.362;-1.518;2022-09-21T01:32:47;7.13;;;3.70;;
24153;SDS011;12312;53.362;-1.518;2022-09-21T01:35:28;8.18;;;4.20;;
24153;SDS011;12312;53.362;-1.518;2022-09-21T01:38:05;8.30;;;3.75;;
24153;SDS011;12312;53.362;-1.518;2022-09-21T01:40:40;8.00;;;3.90;;
24153;SDS011;12312;53.362;-1.518;2022-09-21T01:43:13;8.95;;;4.00;;
24153;SDS011;12312;53.362;-1.518;2022-09-21T01:48:14;7.38;;;3.92;;
24153;SDS011;12312;53.362;-1.518;2022-09-21T01:50:45;7.97;;;4.50;;
24153;SDS011;12312;53.362;-1.518;2022-09-21T01:53:17;7.28;;;4.20;;
24153;SDS011;12312;53.362;-1.518;2022-09-21T01:56:00;7.97;;;4.72;;
24153;SDS011;12312;53.362;-1.518;2022-09-21T01:58:42;7.40;;;4.25;;
24153;SDS011;12312;53.362;-1.518;2022-09-21T02:01:14;8.40;;;4.43;;
24153;SDS011;12312;53.362;-1.518;2022-09-21T02:06:15;8.55;;;4.03;;
24153;SDS011;12312;53.362;-1.518;2022-09-21T02:08:43;7.90;;;4.55;;
24153;SDS011;12312;53.362;-1.518;2022-09-21T02:11:10;7.60;;;4.35;;
24153;SDS011;12312;53.362;-1.518;2022-09-21T02:13:39;8.25;;;4.15;;
24153;SDS011;12312;53.362;-1.518;2022-09-21T02:16:21;9.10;;;4.90;;
24153;SDS011;12312;53.362;-1.518;2022-09-21T02:24:13;8.65;;;4.70;;
24153;SDS011;12312;53.362;-1.518;2022-09-21T02:26:49;8.60;;;4.90;;
24153;SDS011;12312;53.362;-1.518;2022-09-21T02:29:24;10.43;;;4.65;;
24153;SDS011;12312;53.362;-1.518;2022-09-21T02:35:01;8.80;;;4.82;;
24153;SDS011;12312;53.362;-1.518;2022-09-21T02:43:05;9.73;;;4.78;;
24153;SDS011;12312;53.362;-1.518;2022-09-21T02:45:41;9.70;;;4.57;;
24153;SDS011;12312;53.362;-1.518;2022-09-21T02:48:12;8.70;;;4.60;;
24153;SDS011;12312;53.362;-1.518;2022-09-21T02:50:56;9.75;;;5.22;;
24153;SDS011;12312;53.362;-1.518;2022-09-21T02:53:25;7.82;;;4.72;;
24153;SDS011;12312;53.362;-1.518;2022-09-21T02:55:54;6.55;;;4.32;;
24153;SDS011;12312;53.362;-1.518;2022-09-21T02:58:23;11.25;;;4.90;;
24153;SDS011;12312;53.362;-1.518;2022-09-21T03:00:51;12.98;;;4.97;;
24153;SDS011;12312;53.362;-1.518;2022-09-21T03:03:20;7.93;;;4.50;;
24153;SDS011;12312;53.362;-1.518;2022-09-21T03:05:48;10.18;;;5.40;;
24153;SDS011;12312;53.362;-1.518;2022-09-21T03:08:16;8.65;;;4.93;;
24153;SDS011;12312;53.362;-1.518;2022-09-21T03:10:42;9.52;;;5.20;;
24153;SDS011;12312;53.362;-1.518;2022-09-21T03:13:08;8.77;;;4.82;;
24153;SDS011;12312;53.362;-1.518;2022-09-21T03:15:35;9.18;;;5.00;;
24153;SDS011;12312;53.362;-1.518;2022-09-21T03:18:01;10.73;;;5.50;;
24153;SDS011;12312;53.362;-1.518;2022-09-21T03:20:35;10.38;;;5.70;;
24153;SDS011;12312;53.362;-1.518;2022-09-21T03:23:01;10.65;;;6.38;;
24153;SDS011;12312;53.362;-1.518;2022-09-21T03:25:28;8.95;;;5.65;;
24153;SDS011;12312;53.362;-1.518;2022-09-21T03:27:54;11.18;;;6.30;;
24153;SDS011;12312;53.362;-1.518;2022-09-21T03:30:21;12.95;;;6.55;;
24153;SDS011;12312;53.362;-1.518;2022-09-21T03:32:50;9.13;;;5.80;;
24153;SDS011;12312;53.362;-1.518;2022-09-21T03:35:17;12.20;;;6.30;;
24153;SDS011;12312;53.362;-1.518;2022-09-21T03:37:44;13.77;;;6.72;;
24153;SDS011;12312;53.362;-1.518;2022-09-21T03:40:12;12.70;;;6.00;;
24153;SDS011;12312;53.362;-1.518;2022-09-21T03:42:39;11.27;;;6.60;;
24153;SDS011;12312;53.362;-1.518;2022-09-21T03:45:06;11.07;;;6.32;;
24153;SDS011;12312;53.362;-1.518;2022-09-21T03:47:33;12.70;;;6.35;;
24153;SDS011;12312;53.362;-1.518;2022-09-21T03:49:59;12.45;;;5.97;;
24153;SDS011;12312;53.362;-1.518;2022-09-21T03:52:27;11.27;;;6.00;;
24153;SDS011;12312;53.362;-1.518;2022-09-21T03:54:53;9.80;;;5.28;;
24153;SDS011;12312;53.362;-1.518;2022-09-21T03:57:19;11.32;;;5.68;;
24153;SDS011;12312;53.362;-1.518;2022-09-21T03:59:50;9.57;;;5.80;;
24153;SDS011;12312;53.362;-1.518;2022-09-21T04:02:20;9.10;;;5.57;;
24153;SDS011;12312;53.362;-1.518;2022-09-21T04:04:49;9.18;;;5.40;;
24153;SDS011;12312;53.362;-1.518;2022-09-21T04:07:20;9.77;;;5.57;;
24153;SDS011;12312;53.362;-1.518;2022-09-21T04:09:46;8.50;;;5.63;;
24153;SDS011;12312;53.362;-1.518;2022-09-21T04:12:11;9.07;;;5.88;;
24153;SDS011;12312;53.362;-1.518;2022-09-21T04:14:37;9.00;;;5.68;;
24153;SDS011;12312;53.362;-1.518;2022-09-21T04:17:03;10.65;;;5.47;;
24153;SDS011;12312;53.362;-1.518;2022-09-21T04:19:29;9.70;;;5.60;;
24153;SDS011;12312;53.362;-1.518;2022-09-21T04:21:55;10.25;;;6.22;;
24153;SDS011;12312;53.362;-1.518;2022-09-21T04:24:21;10.50;;;5.82;;
24153;SDS011;12312;53.362;-1.518;2022-09-21T04:26:48;10.55;;;5.30;;
24153;SDS011;12312;53.362;-1.518;2022-09-21T04:29:14;10.35;;;5.88;;
24153;SDS011;12312;53.362;-1.518;2022-09-21T04:31:40;10.98;;;5.57;;
24153;SDS011;12312;53.362;-1.518;2022-09-21T04:34:08;11.18;;;5.80;;
24153;SDS011;12312;53.362;-1.518;2022-09-21T04:36:37;9.50;;;5.80;;
24153;SDS011;12312;53.362;-1.518;2022-09-21T04:39:03;10.88;;;6.82;;
24153;SDS011;12312;53.362;-1.518;2022-09-21T04:41:29;11.18;;;6.20;;
24153;SDS011;12312;53.362;-1.518;2022-09-21T04:43:56;10.85;;;6.95;;
24153;SDS011;12312;53.362;-1.518;2022-09-21T04:46:21;14.07;;;8.23;;
24153;SDS011;12312;53.362;-1.518;2022-09-21T04:48:48;12.55;;;7.28;;
24153;SDS011;12312;53.362;-1.518;2022-09-21T04:51:14;18.15;;;8.60;;
24153;SDS011;12312;53.362;-1.518;2022-09-21T04:53:41;15.02;;;8.60;;
24153;SDS011;12312;53.362;-1.518;2022-09-21T04:56:08;14.38;;;8.50;;
24153;SDS011;12312;53.362;-1.518;2022-09-21T04:58:37;15.90;;;9.35;;
24153;SDS011;12312;53.362;-1.518;2022-09-21T05:01:02;14.75;;;8.30;;
24153;SDS011;12312;53.362;-1.518;2022-09-21T05:03:30;16.23;;;9.75;;
24153;SDS011;12312;53.362;-1.518;2022-09-21T05:05:56;14.52;;;9.75;;
24153;SDS011;12312;53.362;-1.518;2022-09-21T05:08:23;15.88;;;9.82;;
24153;SDS011;12312;53.362;-1.518;2022-09-21T05:11:13;13.52;;;9.32;;
24153;SDS011;12312;53.362;-1.518;2022-09-21T05:13:40;18.00;;;9.75;;
24153;SDS011;12312;53.362;-1.518;2022-09-21T05:16:06;17.45;;;9.73;;
24153;SDS011;12312;53.362;-1.518;2022-09-21T05:18:32;14.45;;;9.00;;
24153;SDS011;12312;53.362;-1.518;2022-09-21T05:20:59;15.73;;;9.57;;
24153;SDS011;12312;53.362;-1.518;2022-09-21T05:23:25;17.70;;;10.13;;
24153;SDS011;12312;53.362;-1.518;2022-09-21T05:25:54;17.00;;;9.40;;
24153;SDS011;12312;53.362;-1.518;2022-09-21T05:28:20;16.50;;;9.80;;
24153;SDS011;12312;53.362;-1.518;2022-09-21T05:30:53;14.98;;;8.80;;
24153;SDS011;12312;53.362;-1.518;2022-09-21T05:33:27;14.18;;;9.23;;
24153;SDS011;12312;53.362;-1.518;2022-09-21T05:38:23;16.38;;;9.77;;
24153;SDS011;12312;53.362;-1.518;2022-09-21T05:40:49;16.95;;;8.88;;
24153;SDS011;12312;53.362;-1.518;2022-09-21T05:43:15;18.67;;;10.57;;
24153;SDS011;12312;53.362;-1.518;2022-09-21T05:45:45;17.52;;;10.18;;
24153;SDS011;12312;53.362;-1.518;2022-09-21T05:48:16;15.70;;;9.57;;
24153;SDS011;12312;53.362;-1.518;2022-09-21T06:04:30;22.10;;;12.20;;
24153;SDS011;12312;53.362;-1.518;2022-09-21T06:06:57;23.42;;;12.55;;
24153;SDS011;12312;53.362;-1.518;2022-09-21T06:09:22;21.50;;;12.38;;
24153;SDS011;12312;53.362;-1.518;2022-09-21T06:11:50;25.23;;;14.63;;
24153;SDS011;12312;53.362;-1.518;2022-09-21T06:14:15;24.65;;;13.77;;
24153;SDS011;12312;53.362;-1.518;2022-09-21T06:16:41;26.92;;;15.55;;
24153;SDS011;12312;53.362;-1.518;2022-09-21T06:19:11;25.27;;;15.80;;
24153;SDS011;12312;53.362;-1.518;2022-09-21T06:21:38;23.17;;;14.30;;
24153;SDS011;12312;53.362;-1.518;2022-09-21T06:24:04;23.40;;;15.38;;
24153;SDS011;12312;53.362;-1.518;2022-09-21T06:26:29;24.95;;;15.27;;
24153;SDS011;12312;53.362;-1.518;2022-09-21T06:28:55;27.65;;;15.35;;
24153;SDS011;12312;53.362;-1.518;2022-09-21T06:31:21;27.38;;;16.48;;
24153;SDS011;12312;53.362;-1.518;2022-09-21T06:33:47;26.13;;;15.05;;
24153;SDS011;12312;53.362;-1.518;2022-09-21T06:36:13;27.58;;;16.77;;
24153;SDS011;12312;53.362;-1.518;2022-09-21T06:38:40;31.45;;;19.23;;
24153;SDS011;12312;53.362;-1.518;2022-09-21T06:41:06;31.95;;;19.08;;
24153;SDS011;12312;53.362;-1.518;2022-09-21T06:43:31;35.33;;;20.58;;
24153;SDS011;12312;53.362;-1.518;2022-09-21T06:45:58;37.30;;;22.52;;
24153;SDS011;12312;53.362;-1.518;2022-09-21T06:48:26;38.45;;;23.20;;
24153;SDS011;12312;53.362;-1.518;2022-09-21T06:50:56;42.45;;;24.27;;
24153;SDS011;12312;53.362;-1.518;2022-09-21T06:53:23;40.83;;;23.08;;
24153;SDS011;12312;53.362;-1.518;2022-09-21T06:55:50;38.55;;;23.70;;
24153;SDS011;12312;53.362;-1.518;2022-09-21T06:58:16;38.58;;;23.15;;
24153;SDS011;12312;53.362;-1.518;2022-09-21T07:00:43;37.47;;;23.27;;
24153;SDS011;12312;53.362;-1.518;2022-09-21T07:03:12;39.03;;;24.45;;
24153;SDS011;12312;53.362;-1.518;2022-09-21T07:05:38;40.80;;;24.42;;
24153;SDS011;12312;53.362;-1.518;2022-09-21T07:08:04;42.78;;;23.05;;
24153;SDS011;12312;53.362;-1.518;2022-09-21T07:10:30;43.70;;;23.35;;
24153;SDS011;12312;53.362;-1.518;2022-09-21T07:13:00;43.08;;;23.27;;
24153;SDS011;12312;53.362;-1.518;2022-09-21T07:15:27;40.92;;;22.08;;
24153;SDS011;12312;53.362;-1.518;2022-09-21T07:17:54;38.80;;;21.63;;
24153;SDS011;12312;53.362;-1.518;2022-09-21T07:20:20;36.92;;;21.10;;
24153;SDS011;12312;53.362;-1.518;2022-09-21T07:22:46;35.63;;;19.80;;
24153;SDS011;12312;53.362;-1.518;2022-09-21T07:25:11;32.25;;;18.45;;
24153;SDS011;12312;53.362;-1.518;2022-09-21T07:27:38;28.95;;;17.23;;
24153;SDS011;12312;53.362;-1.518;2022-09-21T07:30:04;30.70;;;16.70;;
24153;SDS011;12312;53.362;-1.518;2022-09-21T07:32:31;24.98;;;14.07;;
24153;SDS011;12312;53.362;-1.518;2022-09-21T07:34:56;22.65;;;14.00;;
24153;SDS011;12312;53.362;-1.518;2022-09-21T07:37:23;26.08;;;12.95;;
24153;SDS011;12312;53.362;-1.518;2022-09-21T07:39:49;20.67;;;12.40;;
24153;SDS011;12312;53.362;-1.518;2022-09-21T07:42:17;21.25;;;11.65;;
24153;SDS011;12312;53.362;-1.518;2022-09-21T07:44:44;20.88;;;12.35;;
24153;SDS011;12312;53.362;-1.518;2022-09-21T07:47:11;24.75;;;12.90;;
24153;SDS011;12312;53.362;-1.518;2022-09-21T07:49:38;21.98;;;12.70;;
24153;SDS011;12312;53.362;-1.518;2022-09-21T07:52:04;24.05;;;13.30;;
24153;SDS011;12312;53.362;-1.518;2022-09-21T07:54:30;22.30;;;13.10;;
24153;SDS011;12312;53.362;-1.518;2022-09-21T07:56:58;23.85;;;13.30;;
24153;SDS011;12312;53.362;-1.518;2022-09-21T07:59:42;24.98;;;13.85;;
24153;SDS011;12312;53.362;-1.518;2022-09-21T08:02:07;24.30;;;12.50;;
24153;SDS011;12312;53.362;-1.518;2022-09-21T08:04:33;31.40;;;12.90;;
24153;SDS011;12312;53.362;-1.518;2022-09-21T08:06:58;18.63;;;12.00;;
24153;SDS011;12312;53.362;-1.518;2022-09-21T08:09:24;39.70;;;13.82;;
24153;SDS011;12312;53.362;-1.518;2022-09-21T08:11:52;37.90;;;11.93;;
24153;SDS011;12312;53.362;-1.518;2022-09-21T08:14:19;16.60;;;9.50;;
24153;SDS011;12312;53.362;-1.518;2022-09-21T08:16:45;13.52;;;8.55;;
24153;SDS011;12312;53.362;-1.518;2022-09-21T08:19:12;15.85;;;9.02;;
24153;SDS011;12312;53.362;-1.518;2022-09-21T08:21:39;19.20;;;9.23;;
24153;SDS011;12312;53.362;-1.518;2022-09-21T08:24:05;19.40;;;9.70;;
24153;SDS011;12312;53.362;-1.518;2022-09-21T08:26:30;18.10;;;9.75;;
24153;SDS011;12312;53.362;-1.518;2022-09-21T08:28:56;14.85;;;8.75;;
24153;SDS011;12312;53.362;-1.518;2022-09-21T08:31:22;14.23;;;8.25;;
24153;SDS011;12312;53.362;-1.518;2022-09-21T08:33:49;14.93;;;8.52;;
24153;SDS011;12312;53.362;-1.518;2022-09-21T08:36:15;14.38;;;8.30;;
24153;SDS011;12312;53.362;-1.518;2022-09-21T08:38:41;14.52;;;7.60;;
24153;SDS011;12312;53.362;-1.518;2022-09-21T08:41:14;30.52;;;9.15;;
24153;SDS011;12312;53.362;-1.518;2022-09-21T08:43:48;18.98;;;7.65;;
24153;SDS011;12312;53.362;-1.518;2022-09-21T08:46:40;12.05;;;7.70;;
24153;SDS011;12312;53.362;-1.518;2022-09-21T08:49:22;13.55;;;7.07;;
24153;SDS011;12312;53.362;-1.518;2022-09-21T08:51:58;24.27;;;8.38;;
24153;SDS011;12312;53.362;-1.518;2022-09-21T08:54:34;28.75;;;8.82;;
24153;SDS011;12312;53.362;-1.518;2022-09-21T08:57:00;14.13;;;8.15;;
24153;SDS011;12312;53.362;-1.518;2022-09-21T08:59:27;11.77;;;8.48;;
24153;SDS011;12312;53.362;-1.518;2022-09-21T09:04:33;10.93;;;7.35;;
24153;SDS011;12312;53.362;-1.518;2022-09-21T09:17:53;14.30;;;8.75;;
24153;SDS011;12312;53.362;-1.518;2022-09-21T09:21:15;12.43;;;7.85;;
24153;SDS011;12312;53.362;-1.518;2022-09-21T09:23:48;12.02;;;7.78;;
24153;SDS011;12312;53.362;-1.518;2022-09-21T09:26:20;9.70;;;6.30;;
24153;SDS011;12312;53.362;-1.518;2022-09-21T09:29:03;10.30;;;6.13;;
24153;SDS011;12312;53.362;-1.518;2022-09-21T09:31:36;9.73;;;5.88;;
24153;SDS011;12312;53.362;-1.518;2022-09-21T09:34:39;10.30;;;5.75;;
24153;SDS011;12312;53.362;-1.518;2022-09-21T09:39:34;8.25;;;5.53;;
24153;SDS011;12312;53.362;-1.518;2022-09-21T09:50:17;6.88;;;4.40;;
24153;SDS011;12312;53.362;-1.518;2022-09-21T09:52:46;6.65;;;4.43;;
24153;SDS011;12312;53.362;-1.518;2022-09-21T09:55:16;7.72;;;4.93;;
24153;SDS011;12312;53.362;-1.518;2022-09-21T09:57:46;8.00;;;4.82;;
24153;SDS011;12312;53.362;-1.518;2022-09-21T10:00:14;10.35;;;4.75;;
24153;SDS011;12312;53.362;-1.518;2022-09-21T10:02:59;7.47;;;4.88;;
24153;SDS011;12312;53.362;-1.518;2022-09-21T10:05:35;6.28;;;4.63;;
24153;SDS011;12312;53.362;-1.518;2022-09-21T10:08:05;6.30;;;4.45;;
24153;SDS011;12312;53.362;-1.518;2022-09-21T10:11:11;6.20;;;4.32;;
24153;SDS011;12312;53.362;-1.518;2022-09-21T10:13:40;6.03;;;3.97;;
24153;SDS011;12312;53.362;-1.518;2022-09-21T10:16:11;7.72;;;4.35;;
24153;SDS011;12312;53.362;-1.518;2022-09-21T10:21:17;7.60;;;4.50;;
24153;SDS011;12312;53.362;-1.518;2022-09-21T10:24:01;6.35;;;4.10;;
24153;SDS011;12312;53.362;-1.518;2022-09-21T10:26:30;7.65;;;4.78;;
24153;SDS011;12312;53.362;-1.518;2022-09-21T10:29:01;7.95;;;4.07;;
24153;SDS011;12312;53.362;-1.518;2022-09-21T10:32:24;8.15;;;4.45;;
24153;SDS011;12312;53.362;-1.518;2022-09-21T10:40:03;6.05;;;3.60;;
24153;SDS011;12312;53.362;-1.518;2022-09-21T10:42:34;7.30;;;3.40;;
24153;SDS011;12312;53.362;-1.518;2022-09-21T10:47:38;5.40;;;3.10;;
24153;SDS011;12312;53.362;-1.518;2022-09-21T10:50:28;4.25;;;3.10;;
24153;SDS011;12312;53.362;-1.518;2022-09-21T10:55:36;5.25;;;3.20;;
24153;SDS011;12312;53.362;-1.518;2022-09-21T10:58:09;4.57;;;2.78;;
24153;SDS011;12312;53.362;-1.518;2022-09-21T11:00:41;4.20;;;2.88;;
24153;SDS011;12312;53.362;-1.518;2022-09-21T11:06:19;3.15;;;2.42;;
24153;SDS011;12312;53.362;-1.518;2022-09-21T11:11:28;4.22;;;2.67;;
24153;SDS011;12312;53.362;-1.518;2022-09-21T11:14:03;4.50;;;2.85;;
24153;SDS011;12312;53.362;-1.518;2022-09-21T11:16:39;3.83;;;2.20;;
24153;SDS011;12312;53.362;-1.518;2022-09-21T11:26:58;3.47;;;1.88;;
24153;SDS011;12312;53.362;-1.518;2022-09-21T11:40:49;2.05;;;1.45;;
24153;SDS011;12312;53.362;-1.518;2022-09-21T11:49:01;2.17;;;1.40;;
24153;SDS011;12312;53.362;-1.518;2022-09-21T11:51:48;3.70;;;1.73;;
24153;SDS011;12312;53.362;-1.518;2022-09-21T11:54:35;2.65;;;1.45;;
24153;SDS011;12312;53.362;-1.518;2022-09-21T11:57:46;3.17;;;1.83;;
24153;SDS011;12312;53.362;-1.518;2022-09-21T12:00:20;7.10;;;1.70;;
24153;SDS011;12312;53.362;-1.518;2022-09-21T12:05:37;3.78;;;1.40;;
24153;SDS011;12312;53.362;-1.518;2022-09-21T12:17:15;4.30;;;2.30;;
24153;SDS011;12312;53.362;-1.518;2022-09-21T12:19:58;2.15;;;1.30;;
24153;SDS011;12312;53.362;-1.518;2022-09-21T12:22:41;4.35;;;1.80;;
24153;SDS011;12312;53.362;-1.518;2022-09-21T12:25:17;2.80;;;1.60;;
24153;SDS011;12312;53.362;-1.518;2022-09-21T12:27:51;2.90;;;1.45;;
24153;SDS011;12312;53.362;-1.518;2022-09-21T12:32:57;1.52;;;1.20;;
24153;SDS011;12312;53.362;-1.518;2022-09-21T12:35:45;2.70;;;1.15;;
24153;SDS011;12312;53.362;-1.518;2022-09-21T12:41:50;2.10;;;1.20;;
24153;SDS011;12312;53.362;-1.518;2022-09-21T12:46:33;3.97;;;1.60;;
24153;SDS011;12312;53.362;-1.518;2022-09-21T12:49:10;4.57;;;1.88;;
24153;SDS011;12312;53.362;-1.518;2022-09-21T12:51:45;4.07;;;1.80;;
24153;SDS011;12312;53.362;-1.518;2022-09-21T12:57:09;2.33;;;1.65;;
24153;SDS011;12312;53.362;-1.518;2022-09-21T13:02:22;4.65;;;1.70;;
24153;SDS011;12312;53.362;-1.518;2022-09-21T13:13:04;2.97;;;2.20;;
24153;SDS011;12312;53.362;-1.518;2022-09-21T13:15:43;3.60;;;2.08;;
24153;SDS011;12312;53.362;-1.518;2022-09-21T13:21:22;3.65;;;2.72;;
24153;SDS011;12312;53.362;-1.518;2022-09-21T13:23:57;4.80;;;2.15;;
24153;SDS011;12312;53.362;-1.518;2022-09-21T13:26:50;4.00;;;3.03;;
24153;SDS011;12312;53.362;-1.518;2022-09-21T13:31:55;3.78;;;2.45;;
24153;SDS011;12312;53.362;-1.518;2022-09-21T13:34:38;5.60;;;2.33;;
24153;SDS011;12312;53.362;-1.518;2022-09-21T13:45:00;4.15;;;2.90;;
24153;SDS011;12312;53.362;-1.518;2022-09-21T13:49:56;5.70;;;3.10;;
24153;SDS011;12312;53.362;-1.518;2022-09-21T13:52:46;2.80;;;2.05;;
24153;SDS011;12312;53.362;-1.518;2022-09-21T13:55:29;3.45;;;2.35;;
24153;SDS011;12312;53.362;-1.518;2022-09-21T13:57:57;3.58;;;2.38;;
24153;SDS011;12312;53.362;-1.518;2022-09-21T14:00:41;4.55;;;2.45;;
24153;SDS011;12312;53.362;-1.518;2022-09-21T14:03:24;4.03;;;2.25;;
24153;SDS011;12312;53.362;-1.518;2022-09-21T14:08:38;3.35;;;2.42;;
24153;SDS011;12312;53.362;-1.518;2022-09-21T14:11:16;3.97;;;2.08;;
24153;SDS011;12312;53.362;-1.518;2022-09-21T14:14:03;3.03;;;2.08;;
24153;SDS011;12312;53.362;-1.518;2022-09-21T14:24:36;2.50;;;1.67;;
24153;SDS011;12312;53.362;-1.518;2022-09-21T14:27:32;2.88;;;1.60;;
24153;SDS011;12312;53.362;-1.518;2022-09-21T14:30:04;2.53;;;2.13;;
24153;SDS011;12312;53.362;-1.518;2022-09-21T14:32:50;3.50;;;1.75;;
24153;SDS011;12312;53.362;-1.518;2022-09-21T14:37:59;3.35;;;1.80;;
24153;SDS011;12312;53.362;-1.518;2022-09-21T14:40:36;3.08;;;1.70;;
24153;SDS011;12312;53.362;-1.518;2022-09-21T14:43:11;4.20;;;1.80;;
24153;SDS011;12312;53.362;-1.518;2022-09-21T14:54:01;2.95;;;1.92;;
24153;SDS011;12312;53.362;-1.518;2022-09-21T14:56:54;3.65;;;2.47;;
24153;SDS011;12312;53.362;-1.518;2022-09-21T15:02:25;4.22;;;1.90;;
24153;SDS011;12312;53.362;-1.518;2022-09-21T15:16:24;3.42;;;2.13;;
24153;SDS011;12312;53.362;-1.518;2022-09-21T15:18:58;3.85;;;2.05;;
24153;SDS011;12312;53.362;-1.518;2022-09-21T15:21:29;3.05;;;1.90;;
24153;SDS011;12312;53.362;-1.518;2022-09-21T15:23:59;3.78;;;2.30;;
24153;SDS011;12312;53.362;-1.518;2022-09-21T15:26:41;2.92;;;2.30;;
24153;SDS011;12312;53.362;-1.518;2022-09-21T15:29:10;4.43;;;2.33;;
24153;SDS011;12312;53.362;-1.518;2022-09-21T15:31:52;5.07;;;2.47;;
24153;SDS011;12312;53.362;-1.518;2022-09-21T15:34:21;6.00;;;2.60;;
24153;SDS011;12312;53.362;-1.518;2022-09-21T15:36:49;3.13;;;2.20;;
24153;SDS011;12312;53.362;-1.518;2022-09-21T15:39:24;4.05;;;2.47;;
24153;SDS011;12312;53.362;-1.518;2022-09-21T15:44:44;3.50;;;2.30;;
24153;SDS011;12312;53.362;-1.518;2022-09-21T15:47:13;5.57;;;2.80;;
24153;SDS011;12312;53.362;-1.518;2022-09-21T15:49:42;4.43;;;2.60;;
24153;SDS011;12312;53.362;-1.518;2022-09-21T15:52:26;4.85;;;2.33;;
24153;SDS011;12312;53.362;-1.518;2022-09-21T15:54:58;3.67;;;2.30;;
24153;SDS011;12312;53.362;-1.518;2022-09-21T16:02:48;5.28;;;2.40;;
24153;SDS011;12312;53.362;-1.518;2022-09-21T16:05:51;3.35;;;2.58;;
24153;SDS011;12312;53.362;-1.518;2022-09-21T16:11:39;5.17;;;2.67;;
24153;SDS011;12312;53.362;-1.518;2022-09-21T16:13:43;6.72;;;2.67;;
24153;SDS011;12312;53.362;-1.518;2022-09-21T16:17:04;4.07;;;2.35;;
24153;SDS011;12312;53.362;-1.518;2022-09-21T16:22:21;3.03;;;2.33;;
24153;SDS011;12312;53.362;-1.518;2022-09-21T16:24:53;3.45;;;2.30;;
24153;SDS011;12312;53.362;-1.518;2022-09-21T16:27:26;4.22;;;2.90;;
24153;SDS011;12312;53.362;-1.518;2022-09-21T16:29:54;3.90;;;2.88;;
24153;SDS011;12312;53.362;-1.518;2022-09-21T16:32:28;5.35;;;2.58;;
24153;SDS011;12312;53.362;-1.518;2022-09-21T16:37:43;4.07;;;2.40;;
24153;SDS011;12312;53.362;-1.518;2022-09-21T16:40:09;4.20;;;2.63;;
24153;SDS011;12312;53.362;-1.518;2022-09-21T16:42:34;5.53;;;2.40;;
24153;SDS011;12312;53.362;-1.518;2022-09-21T16:45:04;4.07;;;2.60;;
24153;SDS011;12312;53.362;-1.518;2022-09-21T16:47:35;4.30;;;2.83;;
24153;SDS011;12312;53.362;-1.518;2022-09-21T16:50:02;3.75;;;2.72;;
24153;SDS011;12312;53.362;-1.518;2022-09-21T16:52:33;4.53;;;3.05;;
24153;SDS011;12312;53.362;-1.518;2022-09-21T16:54:59;5.07;;;2.45;;
24153;SDS011;12312;53.362;-1.518;2022-09-21T16:57:25;4.28;;;2.80;;
24153;SDS011;12312;53.362;-1.518;2022-09-21T16:59:50;4.93;;;2.85;;
24153;SDS011;12312;53.362;-1.518;2022-09-21T17:02:16;6.68;;;3.13;;
24153;SDS011;12312;53.362;-1.518;2022-09-21T17:04:42;5.45;;;3.00;;
24153;SDS011;12312;53.362;-1.518;2022-09-21T17:07:12;3.63;;;2.90;;
24153;SDS011;12312;53.362;-1.518;2022-09-21T17:09:39;3.65;;;3.05;;
24153;SDS011;12312;53.362;-1.518;2022-09-21T17:12:10;5.07;;;2.97;;
24153;SDS011;12312;53.362;-1.518;2022-09-21T17:14:38;6.25;;;3.13;;
24153;SDS011;12312;53.362;-1.518;2022-09-21T17:17:25;5.57;;;2.92;;
24153;SDS011;12312;53.362;-1.518;2022-09-21T17:19:51;3.97;;;3.17;;
24153;SDS011;12312;53.362;-1.518;2022-09-21T17:22:18;7.05;;;3.33;;
24153;SDS011;12312;53.362;-1.518;2022-09-21T17:24:47;5.25;;;3.08;;
24153;SDS011;12312;53.362;-1.518;2022-09-21T17:27:15;5.93;;;3.20;;
24153;SDS011;12312;53.362;-1.518;2022-09-21T17:29:42;5.70;;;3.15;;
24153;SDS011;12312;53.362;-1.518;2022-09-21T17:32:11;6.60;;;3.13;;
24153;SDS011;12312;53.362;-1.518;2022-09-21T17:34:38;5.95;;;2.67;;
24153;SDS011;12312;53.362;-1.518;2022-09-21T17:37:06;4.40;;;2.55;;
24153;SDS011;12312;53.362;-1.518;2022-09-21T17:39:34;5.40;;;3.03;;
24153;SDS011;12312;53.362;-1.518;2022-09-21T17:42:01;7.07;;;2.80;;
24153;SDS011;12312;53.362;-1.518;2022-09-21T17:44:51;3.60;;;2.70;;
24153;SDS011;12312;53.362;-1.518;2022-09-21T17:47:25;6.78;;;2.90;;
24153;SDS011;12312;53.362;-1.518;2022-09-21T17:50:14;5.32;;;3.17;;
24153;SDS011;12312;53.362;-1.518;2022-09-21T17:52:44;5.32;;;3.50;;
24153;SDS011;12312;53.362;-1.518;2022-09-21T17:55:29;5.65;;;3.60;;
24153;SDS011;12312;53.362;-1.518;2022-09-21T18:00:36;5.95;;;3.63;;
24153;SDS011;12312;53.362;-1.518;2022-09-21T18:03:21;9.27;;;3.88;;
24153;SDS011;12312;53.362;-1.518;2022-09-21T18:05:53;4.65;;;3.47;;
24153;SDS011;12312;53.362;-1.518;2022-09-21T18:08:24;5.67;;;3.13;;
24153;SDS011;12312;53.362;-1.518;2022-09-21T18:14:16;7.88;;;4.47;;
24153;SDS011;12312;53.362;-1.518;2022-09-21T18:22:36;6.57;;;3.72;;
24153;SDS011;12312;53.362;-1.518;2022-09-21T18:25:28;5.03;;;3.40;;
24153;SDS011;12312;53.362;-1.518;2022-09-21T18:28:03;5.55;;;3.83;;
24153;SDS011;12312;53.362;-1.518;2022-09-21T18:30:38;7.68;;;3.53;;
24153;SDS011;12312;53.362;-1.518;2022-09-21T18:33:20;6.90;;;3.42;;
24153;SDS011;12312;53.362;-1.518;2022-09-21T18:41:28;9.63;;;3.58;;
24153;SDS011;12312;53.362;-1.518;2022-09-21T18:55:33;6.65;;;3.95;;